createdAt,value
2018-11-20T00:00:38.625Z,3.07
2018-11-20T00:01:38.596Z,3.07
2018-11-20T00:02:38.577Z,3.10
2018-11-20T00:03:38.593Z,3.09
2018-11-20T00:04:38.525Z,3.00
2018-11-20T00:05:38.500Z,3.00
2018-11-20T00:06:38.477Z,2.91
2018-11-20T00:07:38.454Z,3.06
2018-11-20T00:08:38.437Z,2.97
2018-11-20T00:09:38.404Z,2.94
2018-11-20T00:10:38.378Z,2.85
2018-11-20T00:11:38.352Z,2.91
2018-11-20T00:12:38.333Z,3.00
2018-11-20T00:13:38.307Z,3.00
2018-11-20T00:14:38.272Z,3.03
2018-11-20T00:15:38.253Z,3.02
2018-11-20T00:16:38.233Z,3.12
2018-11-20T00:17:38.205Z,3.07
2018-11-20T00:18:38.176Z,3.15
2018-11-20T00:19:38.163Z,3.06
2018-11-20T00:20:38.133Z,3.09
2018-11-20T00:21:38.108Z,3.09
2018-11-20T00:22:38.083Z,3.15
2018-11-20T00:23:38.054Z,3.10
2018-11-20T00:24:38.035Z,3.07
2018-11-20T00:25:38.009Z,3.09
2018-11-20T00:26:37.984Z,3.10
2018-11-20T00:27:37.953Z,3.05
2018-11-20T00:28:37.934Z,3.03
2018-11-20T00:29:37.912Z,3.09
2018-11-20T00:30:37.889Z,3.09
2018-11-20T00:31:37.864Z,3.07
2018-11-20T00:32:37.838Z,3.13
2018-11-20T00:33:37.812Z,3.07
2018-11-20T00:34:37.790Z,3.10
2018-11-20T00:35:37.762Z,3.05
2018-11-20T00:36:37.742Z,3.09
2018-11-20T00:37:37.720Z,3.05
2018-11-20T00:38:37.691Z,3.07
2018-11-20T00:39:37.669Z,3.10
2018-11-20T00:40:37.644Z,3.10
2018-11-20T00:41:37.624Z,3.07
2018-11-20T00:42:37.673Z,3.07
2018-11-20T00:43:37.566Z,3.07
2018-11-20T00:44:37.535Z,2.97
2018-11-20T00:45:37.524Z,3.02
2018-11-20T00:46:37.497Z,3.05
2018-11-20T00:47:37.465Z,2.94
2018-11-20T00:48:37.462Z,2.88
2018-11-20T00:49:37.420Z,2.87
2018-11-20T00:50:37.408Z,2.97
2018-11-20T00:51:37.371Z,2.85
2018-11-20T00:52:37.347Z,2.84
2018-11-20T00:53:37.330Z,2.82
2018-11-20T00:54:37.298Z,2.88
2018-11-20T00:55:37.270Z,2.77
2018-11-20T00:56:37.250Z,2.77
2018-11-20T00:57:37.225Z,2.76
2018-11-20T00:58:37.205Z,2.70
2018-11-20T00:59:37.187Z,2.76
2018-11-20T01:00:37.149Z,2.67
2018-11-20T01:01:37.130Z,2.63
2018-11-20T01:02:37.097Z,2.59
2018-11-20T01:03:37.100Z,2.59
2018-11-20T01:04:37.050Z,2.55
2018-11-20T01:05:37.094Z,2.59
2018-11-20T01:06:37.002Z,2.67
2018-11-20T01:07:36.979Z,2.58
2018-11-20T01:08:36.952Z,2.71
2018-11-20T01:09:36.929Z,2.71
2018-11-20T01:10:36.915Z,2.76
2018-11-20T01:11:36.876Z,2.61
2018-11-20T01:12:36.853Z,2.59
2018-11-20T01:13:36.843Z,2.55
2018-11-20T01:14:36.808Z,2.52
2018-11-20T01:15:36.779Z,2.52
2018-11-20T01:16:36.758Z,2.52
2018-11-20T01:17:36.730Z,2.52
2018-11-20T01:18:36.701Z,2.46
2018-11-20T01:19:36.679Z,2.46
2018-11-20T01:20:36.675Z,2.44
2018-11-20T01:21:36.627Z,2.56
2018-11-20T01:22:36.602Z,2.49
2018-11-20T01:23:36.586Z,2.59
2018-11-20T01:24:36.562Z,2.48
2018-11-20T01:25:36.529Z,2.59
2018-11-20T01:26:36.510Z,2.53
2018-11-20T01:27:36.485Z,2.58
2018-11-20T01:28:36.459Z,2.56
2018-11-20T01:29:36.453Z,2.56
2018-11-20T01:30:36.425Z,2.45
2018-11-20T01:31:36.386Z,2.52
2018-11-20T01:32:36.360Z,2.55
2018-11-20T01:33:36.337Z,2.52
2018-11-20T01:34:36.318Z,2.55
2018-11-20T01:35:36.286Z,2.53
2018-11-20T01:36:36.260Z,2.49
2018-11-20T01:37:36.238Z,2.53
2018-11-20T01:38:36.225Z,2.48
2018-11-20T01:39:36.196Z,2.40
2018-11-20T01:40:36.162Z,2.38
2018-11-20T01:41:36.246Z,2.37
2018-11-20T01:42:36.123Z,2.49
2018-11-20T01:43:36.087Z,2.52
2018-11-20T01:44:36.061Z,2.51
2018-11-20T01:45:36.036Z,2.52
2018-11-20T01:46:36.014Z,2.48
2018-11-20T01:47:35.992Z,2.40
2018-11-20T01:48:35.965Z,2.41
2018-11-20T01:49:35.939Z,2.35
2018-11-20T01:50:35.911Z,2.31
2018-11-20T01:51:35.886Z,2.46
2018-11-20T01:52:35.863Z,2.56
2018-11-20T01:53:35.837Z,2.49
2018-11-20T01:54:35.812Z,2.49
2018-11-20T01:55:35.793Z,2.46
2018-11-20T01:56:35.763Z,2.58
2018-11-20T01:57:35.741Z,2.52
2018-11-20T01:58:35.718Z,2.48
2018-11-20T01:59:35.693Z,2.41
2018-11-20T02:00:35.668Z,2.37
2018-11-20T02:01:35.638Z,2.41
2018-11-20T02:02:35.614Z,2.34
2018-11-20T02:03:35.591Z,2.31
2018-11-20T02:04:35.566Z,2.33
2018-11-20T02:05:35.548Z,2.37
2018-11-20T02:06:35.516Z,2.37
2018-11-20T02:07:35.489Z,2.37
2018-11-20T02:08:35.467Z,2.44
2018-11-20T02:09:35.439Z,2.49
2018-11-20T02:10:35.419Z,2.45
2018-11-20T02:11:35.396Z,2.45
2018-11-20T02:12:35.367Z,2.44
2018-11-20T02:13:35.340Z,2.46
2018-11-20T02:14:35.318Z,2.52
2018-11-20T02:15:35.305Z,2.61
2018-11-20T02:16:35.263Z,2.52
2018-11-20T02:17:35.244Z,2.49
2018-11-20T02:18:35.220Z,2.59
2018-11-20T02:19:35.193Z,2.61
2018-11-20T02:20:35.171Z,2.51
2018-11-20T02:21:35.164Z,2.58
2018-11-20T02:22:35.113Z,2.53
2018-11-20T02:23:35.088Z,2.64
2018-11-20T02:24:35.066Z,2.64
2018-11-20T02:25:35.043Z,2.64
2018-11-20T02:26:35.021Z,2.56
2018-11-20T02:27:35.007Z,2.55
2018-11-20T02:28:34.989Z,2.56
2018-11-20T02:29:34.937Z,2.59
2018-11-20T02:30:34.955Z,2.61
2018-11-20T02:31:34.896Z,2.63
2018-11-20T02:32:34.877Z,2.64
2018-11-20T02:33:34.848Z,2.70
2018-11-20T02:34:34.825Z,2.74
2018-11-20T02:35:34.790Z,2.74
2018-11-20T02:36:34.778Z,2.69
2018-11-20T02:37:34.749Z,2.66
2018-11-20T02:38:34.721Z,2.67
2018-11-20T02:39:34.699Z,2.70
2018-11-20T02:40:34.673Z,2.67
2018-11-20T02:41:34.651Z,2.73
2018-11-20T02:42:34.627Z,2.70
2018-11-20T02:43:34.600Z,2.73
2018-11-20T02:44:34.574Z,2.74
2018-11-20T02:45:34.549Z,2.74
2018-11-20T02:46:34.520Z,2.91
2018-11-20T02:47:34.501Z,2.91
2018-11-20T02:48:34.473Z,2.85
2018-11-20T02:49:34.471Z,2.88
2018-11-20T02:50:34.434Z,2.82
2018-11-20T02:51:34.450Z,2.89
2018-11-20T02:52:34.377Z,2.92
2018-11-20T02:53:34.353Z,2.88
2018-11-20T02:54:34.331Z,2.88
2018-11-20T02:55:34.302Z,2.88
2018-11-20T02:56:34.279Z,3.05
2018-11-20T02:57:34.279Z,3.00
2018-11-20T02:58:34.232Z,2.94
2018-11-20T02:59:34.219Z,2.95
2018-11-20T03:00:34.184Z,2.95
2018-11-20T03:01:34.154Z,2.97
2018-11-20T03:02:34.134Z,2.98
2018-11-20T03:03:34.165Z,2.92
2018-11-20T03:04:34.086Z,2.85
2018-11-20T03:05:34.060Z,2.88
2018-11-20T03:06:34.033Z,2.88
2018-11-20T03:07:34.003Z,2.94
2018-11-20T03:08:33.983Z,2.85
2018-11-20T03:09:33.963Z,2.91
2018-11-20T03:10:33.938Z,2.92
2018-11-20T03:11:33.908Z,2.91
2018-11-20T03:12:33.880Z,3.02
2018-11-20T03:13:33.854Z,2.95
2018-11-20T03:14:33.836Z,2.87
2018-11-20T03:15:33.813Z,3.03
2018-11-20T03:16:33.786Z,3.10
2018-11-20T03:17:33.765Z,3.10
2018-11-20T03:18:34.289Z,3.15
2018-11-20T03:19:33.713Z,3.03
2018-11-20T03:20:33.691Z,3.07
2018-11-20T03:21:33.666Z,3.07
2018-11-20T03:22:33.639Z,3.10
2018-11-20T03:23:33.614Z,3.09
2018-11-20T03:24:33.589Z,3.05
2018-11-20T03:25:33.573Z,3.09
2018-11-20T03:26:33.549Z,3.09
2018-11-20T03:27:33.518Z,3.07
2018-11-20T03:28:33.495Z,2.97
2018-11-20T03:29:33.464Z,3.05
2018-11-20T03:30:33.448Z,3.12
2018-11-20T03:31:33.419Z,3.05
2018-11-20T03:32:33.402Z,3.06
2018-11-20T03:33:33.375Z,3.12
2018-11-20T03:34:33.348Z,3.10
2018-11-20T03:35:33.319Z,3.16
2018-11-20T03:36:33.297Z,3.16
2018-11-20T03:37:33.278Z,3.13
2018-11-20T03:38:33.295Z,3.12
2018-11-20T03:39:33.234Z,3.10
2018-11-20T03:40:33.198Z,3.18
2018-11-20T03:41:33.180Z,3.25
2018-11-20T03:42:33.155Z,3.31
2018-11-20T03:43:33.139Z,3.39
2018-11-20T03:44:33.107Z,3.31
2018-11-20T03:45:33.082Z,3.46
2018-11-20T03:46:33.065Z,3.33
2018-11-20T03:47:33.027Z,3.33
2018-11-20T03:48:33.011Z,3.24
2018-11-20T03:49:32.982Z,3.46
2018-11-20T03:50:33.013Z,3.33
2018-11-20T03:51:32.932Z,3.25
2018-11-20T03:52:32.913Z,3.30
2018-11-20T03:53:32.887Z,3.28
2018-11-20T03:54:32.861Z,3.33
2018-11-20T03:55:32.839Z,3.25
2018-11-20T03:56:32.813Z,3.23
2018-11-20T03:57:32.803Z,3.25
2018-11-20T03:58:32.765Z,3.12
2018-11-20T03:59:32.737Z,3.21
2018-11-20T04:00:32.718Z,3.27
2018-11-20T04:01:32.692Z,3.30
2018-11-20T04:02:32.667Z,3.27
2018-11-20T04:03:32.647Z,3.25
2018-11-20T04:04:32.619Z,3.30
2018-11-20T04:05:32.596Z,3.34
2018-11-20T04:06:32.567Z,3.40
2018-11-20T04:07:32.551Z,3.33
2018-11-20T04:08:32.522Z,3.21
2018-11-20T04:09:32.503Z,3.36
2018-11-20T04:10:32.468Z,3.30
2018-11-20T04:11:32.448Z,3.27
2018-11-20T04:12:32.420Z,3.28
2018-11-20T04:13:32.397Z,3.21
2018-11-20T04:14:32.378Z,3.24
2018-11-20T04:15:32.344Z,3.23
2018-11-20T04:16:32.325Z,3.25
2018-11-20T04:17:32.304Z,3.23
2018-11-20T04:18:32.280Z,3.23
2018-11-20T04:19:32.255Z,3.18
2018-11-20T04:20:32.229Z,3.23
2018-11-20T04:21:32.204Z,3.18
2018-11-20T04:22:32.188Z,3.23
2018-11-20T04:23:32.156Z,3.16
2018-11-20T04:24:32.130Z,3.23
2018-11-20T04:25:32.110Z,3.27
2018-11-20T04:26:32.083Z,3.27
2018-11-20T04:27:32.054Z,3.24
2018-11-20T04:28:32.039Z,3.30
2018-11-20T04:29:32.020Z,3.27
2018-11-20T04:30:31.993Z,3.25
2018-11-20T04:31:31.961Z,3.31
2018-11-20T04:32:31.944Z,3.34
2018-11-20T04:33:31.919Z,3.33
2018-11-20T04:34:31.893Z,3.31
2018-11-20T04:35:31.864Z,3.28
2018-11-20T04:36:31.867Z,3.28
2018-11-20T04:37:31.817Z,3.23
2018-11-20T04:38:31.794Z,3.28
2018-11-20T04:39:31.760Z,3.27
2018-11-20T04:40:31.744Z,3.25
2018-11-20T04:41:31.723Z,3.24
2018-11-20T04:42:31.687Z,3.30
2018-11-20T04:43:31.661Z,3.30
2018-11-20T04:44:31.655Z,3.33
2018-11-20T04:45:31.623Z,3.33
2018-11-20T04:46:31.597Z,3.23
2018-11-20T04:47:31.571Z,3.33
2018-11-20T04:48:31.545Z,3.39
2018-11-20T04:49:31.523Z,3.33
2018-11-20T04:50:31.504Z,3.34
2018-11-20T04:51:31.481Z,3.36
2018-11-20T04:52:31.449Z,3.30
2018-11-20T04:53:31.428Z,3.43
2018-11-20T04:54:31.404Z,3.30
2018-11-20T04:55:31.388Z,3.40
2018-11-20T04:56:31.359Z,3.44
2018-11-20T04:57:31.343Z,3.31
2018-11-20T04:58:31.301Z,3.36
2018-11-20T04:59:31.281Z,3.30
2018-11-20T05:00:31.256Z,3.33
2018-11-20T05:01:31.234Z,3.43
2018-11-20T05:02:31.208Z,3.40
2018-11-20T05:03:31.185Z,3.44
2018-11-20T05:04:31.160Z,3.40
2018-11-20T05:05:31.135Z,3.33
2018-11-20T05:06:31.142Z,3.31
2018-11-20T05:07:31.093Z,3.36
2018-11-20T05:08:31.058Z,3.43
2018-11-20T05:09:31.073Z,3.42
2018-11-20T05:10:31.016Z,3.33
2018-11-20T05:11:30.984Z,3.40
2018-11-20T05:12:30.970Z,3.39
2018-11-20T05:13:30.941Z,3.39
2018-11-20T05:14:30.913Z,3.33
2018-11-20T05:15:30.891Z,3.39
2018-11-20T05:16:30.869Z,3.31
2018-11-20T05:17:30.840Z,3.36
2018-11-20T05:18:30.811Z,3.36
2018-11-20T05:19:30.791Z,3.39
2018-11-20T05:20:30.765Z,3.34
2018-11-20T05:21:30.752Z,3.25
2018-11-20T05:22:30.716Z,3.34
2018-11-20T05:23:30.691Z,3.40
2018-11-20T05:24:30.674Z,3.27
2018-11-20T05:25:30.659Z,3.30
2018-11-20T05:26:30.620Z,3.31
2018-11-20T05:27:30.605Z,3.36
2018-11-20T05:28:30.567Z,3.42
2018-11-20T05:29:30.551Z,3.36
2018-11-20T05:30:30.533Z,3.39
2018-11-20T05:31:30.495Z,3.24
2018-11-20T05:32:30.480Z,3.34
2018-11-20T05:33:30.458Z,3.34
2018-11-20T05:34:30.431Z,3.31
2018-11-20T05:35:30.436Z,3.25
2018-11-20T05:36:30.388Z,3.31
2018-11-20T05:37:30.359Z,3.28
2018-11-20T05:38:30.337Z,3.27
2018-11-20T05:39:30.313Z,3.25
2018-11-20T05:40:30.448Z,3.24
2018-11-20T05:41:30.814Z,3.25
2018-11-20T05:42:30.235Z,3.23
2018-11-20T05:43:30.212Z,3.18
2018-11-20T05:44:30.190Z,3.24
2018-11-20T05:45:30.167Z,3.23
2018-11-20T05:46:30.142Z,3.25
2018-11-20T05:47:30.116Z,3.13
2018-11-20T05:48:30.095Z,3.20
2018-11-20T05:49:30.065Z,3.16
2018-11-20T05:50:30.047Z,3.25
2018-11-20T05:51:30.027Z,3.24
2018-11-20T05:52:29.991Z,3.27
2018-11-20T05:53:29.979Z,3.36
2018-11-20T05:54:29.941Z,3.36
2018-11-20T05:55:29.923Z,3.31
2018-11-20T05:56:29.907Z,3.36
2018-11-20T05:57:29.875Z,3.34
2018-11-20T05:58:29.855Z,3.36
2018-11-20T05:59:29.823Z,3.47
2018-11-20T06:00:29.810Z,3.40
2018-11-20T06:01:29.781Z,3.42
2018-11-20T06:02:29.750Z,3.34
2018-11-20T06:03:29.728Z,3.47
2018-11-20T06:04:29.710Z,3.46
2018-11-20T06:05:29.680Z,3.34
2018-11-20T06:06:29.655Z,3.43
2018-11-20T06:07:29.632Z,3.43
2018-11-20T06:08:29.603Z,3.43
2018-11-20T06:09:29.571Z,3.49
2018-11-20T06:10:29.565Z,3.36
2018-11-20T06:11:29.531Z,3.34
2018-11-20T06:12:29.512Z,3.36
2018-11-20T06:13:29.497Z,3.40
2018-11-20T06:14:29.472Z,3.34
2018-11-20T06:15:29.437Z,3.31
2018-11-20T06:16:29.417Z,3.27
2018-11-20T06:17:29.388Z,3.30
2018-11-20T06:18:29.357Z,3.34
2018-11-20T06:19:29.335Z,3.39
2018-11-20T06:20:29.315Z,3.40
2018-11-20T06:21:29.294Z,3.34
2018-11-20T06:22:29.268Z,3.34
2018-11-20T06:23:29.243Z,3.24
2018-11-20T06:24:29.830Z,3.34
2018-11-20T06:25:29.191Z,3.36
2018-11-20T06:26:29.168Z,3.34
2018-11-20T06:27:29.142Z,3.39
2018-11-20T06:28:29.130Z,3.36
2018-11-20T06:29:29.105Z,3.34
2018-11-20T06:30:29.062Z,3.36
2018-11-20T06:31:29.048Z,3.39
2018-11-20T06:32:29.014Z,3.36
2018-11-20T06:33:28.998Z,3.47
2018-11-20T06:34:29.122Z,3.47
2018-11-20T06:35:28.947Z,3.44
2018-11-20T06:36:28.927Z,3.46
2018-11-20T06:37:28.904Z,3.46
2018-11-20T06:38:28.879Z,3.44
2018-11-20T06:39:28.853Z,3.40
2018-11-20T06:40:28.828Z,3.47
2018-11-20T06:41:28.802Z,3.46
2018-11-20T06:42:28.780Z,3.44
2018-11-20T06:43:28.751Z,3.47
2018-11-20T06:44:28.729Z,3.57
2018-11-20T06:45:28.706Z,3.47
2018-11-20T06:46:28.698Z,3.49
2018-11-20T06:47:28.668Z,3.61
2018-11-20T06:48:28.633Z,3.43
2018-11-20T06:49:28.607Z,3.44
2018-11-20T06:50:28.585Z,3.44
2018-11-20T06:51:28.562Z,3.44
2018-11-20T06:52:28.553Z,3.58
2018-11-20T06:53:28.582Z,3.57
2018-11-20T06:54:28.485Z,3.57
2018-11-20T06:55:28.460Z,3.57
2018-11-20T06:56:28.447Z,3.67
2018-11-20T06:57:28.425Z,3.64
2018-11-20T06:58:28.393Z,3.65
2018-11-20T06:59:28.365Z,3.62
2018-11-20T07:00:28.341Z,3.70
2018-11-20T07:01:28.341Z,3.72
2018-11-20T07:02:28.287Z,3.78
2018-11-20T07:03:28.269Z,3.71
2018-11-20T07:04:28.262Z,3.75
2018-11-20T07:05:28.221Z,3.68
2018-11-20T07:06:28.198Z,3.75
2018-11-20T07:07:28.342Z,3.72
2018-11-20T07:08:28.228Z,3.79
2018-11-20T07:09:28.120Z,3.75
2018-11-20T07:10:28.100Z,3.75
2018-11-20T07:11:28.075Z,3.78
2018-11-20T07:12:28.046Z,3.72
2018-11-20T07:13:28.024Z,3.78
2018-11-20T07:14:27.998Z,3.85
2018-11-20T07:15:28.026Z,3.85
2018-11-20T07:16:28.007Z,3.72
2018-11-20T07:17:27.932Z,3.80
2018-11-20T07:18:27.909Z,3.76
2018-11-20T07:19:27.876Z,3.80
2018-11-20T07:20:27.873Z,3.85
2018-11-20T07:21:27.828Z,3.92
2018-11-20T07:22:27.869Z,3.97
2018-11-20T07:23:27.783Z,3.92
2018-11-20T07:24:27.759Z,3.97
2018-11-20T07:25:27.736Z,3.98
2018-11-20T07:26:27.713Z,3.90
2018-11-20T07:27:27.691Z,3.90
2018-11-20T07:28:27.666Z,3.88
2018-11-20T07:29:27.663Z,3.92
2018-11-20T07:30:27.632Z,3.98
2018-11-20T07:31:27.651Z,3.89
2018-11-20T07:32:27.588Z,4.01
2018-11-20T07:33:27.538Z,4.04
2018-11-20T07:34:27.517Z,4.03
2018-11-20T07:35:27.495Z,4.03
2018-11-20T07:36:27.606Z,4.00
2018-11-20T07:37:27.614Z,4.01
2018-11-20T07:38:27.465Z,4.03
2018-11-20T07:39:27.405Z,4.00
2018-11-20T07:40:27.382Z,4.06
2018-11-20T07:41:27.349Z,4.15
2018-11-20T07:42:27.322Z,4.16
2018-11-20T07:43:27.329Z,4.16
2018-11-20T07:44:27.278Z,4.08
2018-11-20T07:45:27.324Z,4.08
2018-11-20T07:46:27.237Z,4.14
2018-11-20T07:47:27.204Z,4.12
2018-11-20T07:48:27.184Z,4.15
2018-11-20T07:49:27.165Z,4.18
2018-11-20T07:50:27.132Z,4.28
2018-11-20T07:51:27.118Z,4.26
2018-11-20T07:52:27.091Z,4.26
2018-11-20T07:53:27.065Z,4.25
2018-11-20T07:54:27.041Z,4.28
2018-11-20T07:55:27.109Z,4.28
2018-11-20T07:56:27.041Z,4.34
2018-11-20T07:57:26.967Z,4.26
2018-11-20T07:58:26.941Z,4.28
2018-11-20T07:59:26.916Z,4.32
2018-11-20T08:00:26.895Z,4.32
2018-11-20T08:01:26.878Z,4.34
2018-11-20T08:02:26.928Z,4.37
2018-11-20T08:03:26.820Z,4.32
2018-11-20T08:04:26.798Z,4.42
2018-11-20T08:05:26.772Z,4.42
2018-11-20T08:06:26.753Z,4.36
2018-11-20T08:07:26.727Z,4.39
2018-11-20T08:08:26.761Z,4.36
2018-11-20T08:09:26.686Z,4.51
2018-11-20T08:10:26.653Z,4.51
2018-11-20T08:11:26.637Z,4.57
2018-11-20T08:12:27.351Z,4.46
2018-11-20T08:13:26.589Z,4.57
2018-11-20T08:14:26.562Z,4.51
2018-11-20T08:15:26.600Z,4.57
2018-11-20T08:16:27.349Z,4.51
2018-11-20T08:17:26.493Z,4.44
2018-11-20T08:18:26.460Z,4.51
2018-11-20T08:19:26.441Z,4.51
2018-11-20T08:20:26.428Z,4.61
2018-11-20T08:21:26.403Z,4.64
2018-11-20T08:22:26.367Z,4.57
2018-11-20T08:23:26.348Z,4.59
2018-11-20T08:24:26.319Z,4.58
2018-11-20T08:25:26.363Z,4.65
2018-11-20T08:26:26.511Z,4.64
2018-11-20T08:27:26.252Z,4.65
2018-11-20T08:28:26.227Z,4.64
2018-11-20T08:29:26.272Z,4.65
2018-11-20T08:30:26.182Z,4.73
2018-11-20T08:31:26.163Z,4.80
2018-11-20T08:32:26.140Z,4.79
2018-11-20T08:33:26.196Z,4.77
2018-11-20T08:34:26.083Z,4.73
2018-11-20T08:35:26.066Z,4.89
2018-11-20T08:36:26.041Z,4.79
2018-11-20T08:37:26.023Z,4.86
2018-11-20T08:38:25.999Z,4.92
2018-11-20T08:39:25.973Z,4.94
2018-11-20T08:40:25.952Z,4.98
2018-11-20T08:41:25.920Z,4.98
2018-11-20T08:42:25.905Z,5.05
2018-11-20T08:43:25.884Z,4.99
2018-11-20T08:44:25.857Z,5.01
2018-11-20T08:45:25.828Z,4.95
2018-11-20T08:46:25.809Z,5.05
2018-11-20T08:47:25.790Z,5.05
2018-11-20T08:48:25.826Z,5.07
2018-11-20T08:49:25.736Z,5.14
2018-11-20T08:50:25.727Z,5.02
2018-11-20T08:51:25.688Z,5.01
2018-11-20T08:52:25.662Z,5.13
2018-11-20T08:53:25.700Z,5.05
2018-11-20T08:54:25.617Z,5.10
2018-11-20T08:55:25.592Z,5.07
2018-11-20T08:56:25.579Z,5.02
2018-11-20T08:57:25.548Z,5.12
2018-11-20T08:58:25.531Z,5.13
2018-11-20T08:59:25.509Z,5.17
2018-11-20T09:00:25.477Z,5.12
2018-11-20T09:01:25.456Z,5.12
2018-11-20T09:02:25.544Z,5.14
2018-11-20T09:03:25.520Z,5.12
2018-11-20T09:04:25.404Z,5.12
2018-11-20T09:05:25.368Z,5.14
2018-11-20T09:06:25.343Z,5.22
2018-11-20T09:07:25.314Z,5.23
2018-11-20T09:08:25.292Z,5.17
2018-11-20T09:09:25.273Z,5.28
2018-11-20T09:10:25.343Z,5.28
2018-11-20T09:11:25.234Z,5.22
2018-11-20T09:12:25.206Z,5.25
2018-11-20T09:13:25.180Z,5.28
2018-11-20T09:14:25.152Z,5.34
2018-11-20T09:15:25.136Z,5.31
2018-11-20T09:16:25.108Z,5.38
2018-11-20T09:17:25.095Z,5.38
2018-11-20T09:18:25.069Z,5.38
2018-11-20T09:19:25.044Z,5.46
2018-11-20T09:20:25.087Z,5.46
2018-11-20T09:21:25.022Z,5.43
2018-11-20T09:22:24.973Z,5.31
2018-11-20T09:23:24.945Z,5.30
2018-11-20T09:24:24.923Z,5.22
2018-11-20T09:25:24.945Z,5.23
2018-11-20T09:26:24.878Z,5.27
2018-11-20T09:27:24.860Z,5.38
2018-11-20T09:28:24.836Z,5.32
2018-11-20T09:29:24.811Z,5.41
2018-11-20T09:30:24.785Z,5.35
2018-11-20T09:31:24.769Z,5.37
2018-11-20T09:32:24.740Z,5.45
2018-11-20T09:33:24.717Z,5.41
2018-11-20T09:34:24.727Z,5.37
2018-11-20T09:35:24.836Z,5.41
2018-11-20T09:36:24.650Z,5.41
2018-11-20T09:37:24.631Z,5.34
2018-11-20T09:38:24.608Z,5.34
2018-11-20T09:39:24.579Z,5.41
2018-11-20T09:40:25.378Z,5.46
2018-11-20T09:41:24.539Z,5.38
2018-11-20T09:42:24.527Z,5.43
2018-11-20T09:43:24.494Z,5.43
2018-11-20T09:44:24.466Z,5.37
2018-11-20T09:45:24.447Z,5.45
2018-11-20T09:46:24.467Z,5.41
2018-11-20T09:47:24.395Z,5.48
2018-11-20T09:48:24.376Z,5.34
2018-11-20T09:49:24.356Z,5.37
2018-11-20T09:50:24.330Z,5.37
2018-11-20T09:51:24.305Z,5.48
2018-11-20T09:52:24.279Z,5.45
2018-11-20T09:53:24.263Z,5.46
2018-11-20T09:54:24.241Z,5.52
2018-11-20T09:55:24.209Z,5.56
2018-11-20T09:56:24.196Z,5.56
2018-11-20T09:57:24.166Z,5.59
2018-11-20T09:58:24.150Z,5.56
2018-11-20T09:59:24.168Z,5.56
2018-11-20T10:00:24.097Z,5.70
2018-11-20T10:01:24.074Z,5.66
2018-11-20T10:02:24.048Z,5.67
2018-11-20T10:03:24.048Z,5.66
2018-11-20T10:04:24.010Z,5.78
2018-11-20T10:05:23.993Z,5.71
2018-11-20T10:06:23.965Z,5.85
2018-11-20T10:07:23.937Z,5.78
2018-11-20T10:08:23.914Z,5.73
2018-11-20T10:09:23.895Z,5.77
2018-11-20T10:10:23.883Z,5.71
2018-11-20T10:11:23.856Z,5.73
2018-11-20T10:12:23.821Z,5.66
2018-11-20T10:13:23.805Z,5.73
2018-11-20T10:14:23.918Z,5.74
2018-11-20T10:15:23.756Z,5.68
2018-11-20T10:16:23.734Z,5.78
2018-11-20T10:17:23.708Z,5.74
2018-11-20T10:18:23.706Z,5.66
2018-11-20T10:19:23.663Z,5.49
2018-11-20T10:20:23.661Z,5.56
2018-11-20T10:21:23.707Z,5.43
2018-11-20T10:22:23.641Z,5.43
2018-11-20T10:23:23.631Z,5.50
2018-11-20T10:24:23.557Z,5.59
2018-11-20T10:25:24.533Z,5.60
2018-11-20T10:26:23.542Z,5.53
2018-11-20T10:27:23.486Z,5.50
2018-11-20T10:28:23.457Z,5.55
2018-11-20T10:29:23.441Z,5.53
2018-11-20T10:30:23.416Z,5.56
2018-11-20T10:31:23.393Z,5.56
2018-11-20T10:32:23.400Z,5.50
2018-11-20T10:33:23.349Z,5.46
2018-11-20T10:34:23.329Z,5.66
2018-11-20T10:35:23.353Z,5.63
2018-11-20T10:36:23.278Z,5.48
2018-11-20T10:37:23.250Z,5.48
2018-11-20T10:38:23.228Z,5.52
2018-11-20T10:39:23.217Z,5.67
2018-11-20T10:40:23.254Z,5.64
2018-11-20T10:41:23.173Z,5.66
2018-11-20T10:42:23.136Z,5.60
2018-11-20T10:43:23.113Z,5.60
2018-11-20T10:44:23.091Z,5.64
2018-11-20T10:45:23.169Z,5.53
2018-11-20T10:46:23.095Z,5.66
2018-11-20T10:47:23.026Z,5.67
2018-11-20T10:48:22.998Z,5.63
2018-11-20T10:49:22.981Z,5.73
2018-11-20T10:50:22.955Z,5.77
2018-11-20T10:51:22.936Z,5.67
2018-11-20T10:52:22.940Z,5.64
2018-11-20T10:53:22.890Z,5.74
2018-11-20T10:54:22.860Z,5.67
2018-11-20T10:55:22.844Z,5.75
2018-11-20T10:56:22.815Z,5.81
2018-11-20T10:57:22.793Z,5.78
2018-11-20T10:58:22.773Z,5.78
2018-11-20T10:59:22.769Z,5.86
2018-11-20T11:00:22.723Z,5.83
2018-11-20T11:01:22.705Z,5.86
2018-11-20T11:02:22.677Z,5.82
2018-11-20T11:03:22.657Z,5.85
2018-11-20T11:04:22.751Z,5.88
2018-11-20T11:05:22.617Z,5.85
2018-11-20T11:06:22.718Z,5.82
2018-11-20T11:07:22.623Z,5.71
2018-11-20T11:08:22.546Z,5.71
2018-11-20T11:09:22.517Z,5.75
2018-11-20T11:10:22.495Z,5.85
2018-11-20T11:11:22.488Z,5.78
2018-11-20T11:12:22.452Z,5.82
2018-11-20T11:13:22.434Z,5.73
2018-11-20T11:14:22.462Z,5.73
2018-11-20T11:15:22.386Z,5.81
2018-11-20T11:16:22.356Z,5.85
2018-11-20T11:17:22.343Z,5.88
2018-11-20T11:18:22.363Z,5.89
2018-11-20T11:19:22.295Z,5.78
2018-11-20T11:20:22.369Z,5.86
2018-11-20T11:21:22.245Z,5.86
2018-11-20T11:22:22.227Z,5.83
2018-11-20T11:23:22.945Z,5.78
2018-11-20T11:24:22.175Z,5.81
2018-11-20T11:25:22.158Z,5.77
2018-11-20T11:26:22.138Z,5.85
2018-11-20T11:27:22.112Z,5.83
2018-11-20T11:28:22.091Z,5.85
2018-11-20T11:29:22.068Z,5.85
2018-11-20T11:30:22.042Z,5.92
2018-11-20T11:31:22.020Z,5.98
2018-11-20T11:32:21.999Z,5.95
2018-11-20T11:33:26.776Z,6.01
2018-11-20T11:34:21.952Z,5.91
2018-11-20T11:35:21.933Z,6.01
2018-11-20T11:36:21.904Z,5.89
2018-11-20T11:37:21.888Z,5.96
2018-11-20T11:38:21.865Z,5.85
2018-11-20T11:39:21.843Z,5.89
2018-11-20T11:40:21.814Z,5.85
2018-11-20T11:41:21.795Z,5.81
2018-11-20T11:42:21.773Z,5.78
2018-11-20T11:43:21.811Z,5.85
2018-11-20T11:44:21.724Z,5.86
2018-11-20T11:45:21.705Z,5.83
2018-11-20T11:46:21.682Z,5.98
2018-11-20T11:47:21.653Z,5.85
2018-11-20T11:48:21.635Z,5.89
2018-11-20T11:49:21.611Z,5.95
2018-11-20T11:50:21.595Z,5.88
2018-11-20T11:51:25.470Z,5.85
2018-11-20T11:52:25.323Z,5.88
2018-11-20T11:53:21.523Z,5.82
2018-11-20T11:54:21.497Z,5.81
2018-11-20T11:55:21.475Z,5.83
2018-11-20T11:56:21.449Z,5.81
2018-11-20T11:57:21.430Z,5.82
2018-11-20T11:58:21.505Z,5.77
2018-11-20T11:59:21.382Z,5.70
2018-11-20T12:00:21.357Z,5.75
2018-11-20T12:01:21.342Z,5.86
2018-11-20T12:03:21.285Z,5.78
2018-11-20T12:04:21.269Z,5.71
2018-11-20T12:05:21.242Z,5.75
2018-11-20T12:06:21.215Z,5.75
2018-11-20T12:07:21.214Z,5.73
2018-11-20T12:08:21.176Z,5.77
2018-11-20T12:09:21.165Z,5.75
2018-11-20T12:10:21.124Z,5.81
2018-11-20T12:11:21.101Z,5.75
2018-11-20T12:12:21.108Z,5.78
2018-11-20T12:13:21.060Z,5.68
2018-11-20T12:14:21.039Z,5.60
2018-11-20T12:15:21.007Z,5.67
2018-11-20T12:16:20.992Z,5.55
2018-11-20T12:17:20.970Z,5.64
2018-11-20T12:18:20.945Z,5.60
2018-11-20T12:19:20.923Z,5.57
2018-11-20T12:20:20.908Z,5.50
2018-11-20T12:21:20.872Z,5.46
2018-11-20T12:22:20.846Z,5.63
2018-11-20T12:23:20.823Z,5.52
2018-11-20T12:24:21.414Z,5.52
2018-11-20T12:25:20.779Z,5.43
2018-11-20T12:26:20.753Z,5.48
2018-11-20T12:27:22.324Z,5.38
2018-11-20T12:28:20.712Z,5.40
2018-11-20T12:29:20.693Z,5.38
2018-11-20T12:30:20.658Z,5.32
2018-11-20T12:31:20.644Z,5.31
2018-11-20T12:32:20.620Z,5.31
2018-11-20T12:33:20.591Z,5.28
2018-11-20T12:34:20.574Z,5.32
2018-11-20T12:35:25.891Z,5.23
2018-11-20T12:36:20.524Z,5.16
2018-11-20T12:37:22.473Z,5.25
2018-11-20T12:38:20.495Z,5.22
2018-11-20T12:39:21.799Z,5.22
2018-11-20T12:40:20.440Z,5.19
2018-11-20T12:41:20.408Z,5.16
2018-11-20T12:42:22.401Z,5.10
2018-11-20T12:43:20.365Z,5.12
2018-11-20T12:44:21.483Z,5.09
2018-11-20T12:45:20.311Z,5.05
2018-11-20T12:46:20.288Z,4.95
2018-11-20T12:47:20.268Z,5.10
2018-11-20T12:48:22.318Z,5.05
2018-11-20T12:49:20.218Z,4.99
2018-11-20T12:50:20.192Z,4.95
2018-11-20T12:51:20.171Z,5.01
2018-11-20T12:52:20.148Z,5.02
2018-11-20T12:53:21.457Z,4.96
2018-11-20T12:54:20.107Z,5.01
2018-11-20T12:55:20.081Z,4.95
2018-11-20T12:56:20.059Z,4.98
2018-11-20T12:57:20.043Z,4.95
2018-11-20T12:58:20.004Z,4.96
2018-11-20T12:59:19.988Z,4.89
2018-11-20T13:00:19.968Z,4.91
2018-11-20T13:01:19.936Z,4.94
2018-11-20T13:02:19.917Z,4.86
2018-11-20T13:03:19.894Z,4.88
2018-11-20T13:04:19.865Z,4.94
2018-11-20T13:05:19.840Z,4.88
2018-11-20T13:06:19.822Z,4.80
2018-11-20T13:07:19.797Z,4.77
2018-11-20T13:08:20.826Z,4.86
2018-11-20T13:09:20.820Z,4.84
2018-11-20T13:10:20.953Z,4.88
2018-11-20T13:11:19.701Z,4.88
2018-11-20T13:12:19.672Z,4.77
2018-11-20T13:13:19.653Z,4.72
2018-11-20T13:14:22.332Z,4.69
2018-11-20T13:15:19.612Z,4.79
2018-11-20T13:16:19.583Z,4.88
2018-11-20T13:17:19.565Z,4.86
2018-11-20T13:18:19.537Z,4.88
2018-11-20T13:19:19.510Z,4.92